createdAt,value
2019-05-11T00:00:37.301Z,74.63
2019-05-11T00:03:08.262Z,75.47
2019-05-11T00:05:39.250Z,76.42
2019-05-11T00:08:10.420Z,76.67
2019-05-11T00:10:41.417Z,77.10
2019-05-11T00:13:12.361Z,75.95
2019-05-11T00:15:43.411Z,75.29
2019-05-11T00:18:14.473Z,75.09
2019-05-11T00:20:45.451Z,74.96
2019-05-11T00:23:16.664Z,76.01
2019-05-11T00:25:47.623Z,76.53
2019-05-11T00:28:18.460Z,75.49
2019-05-11T00:30:49.521Z,74.81
2019-05-11T00:33:20.550Z,74.70
2019-05-11T00:35:51.473Z,74.18
2019-05-11T00:38:22.520Z,74.29
2019-05-11T00:40:53.406Z,73.57
2019-05-11T00:43:24.462Z,73.57
2019-05-11T00:45:55.428Z,73.34
2019-05-11T00:48:26.796Z,73.32
2019-05-11T00:51:00.596Z,73.53
2019-05-11T00:53:31.759Z,73.55
2019-05-11T00:56:02.698Z,73.73
2019-05-11T00:58:33.692Z,73.89
2019-05-11T01:01:04.847Z,74.22
2019-05-11T01:03:35.741Z,73.53
2019-05-11T01:06:06.759Z,73.28
2019-05-11T01:08:37.878Z,73.44
2019-05-11T01:11:09.050Z,74.18
2019-05-11T01:13:40.036Z,73.67
2019-05-11T01:16:11.081Z,73.45
2019-05-11T01:18:42.121Z,73.58
2019-05-11T01:21:13.091Z,73.38
2019-05-11T01:23:44.113Z,73.38
2019-05-11T01:26:15.103Z,75.39
2019-05-11T01:28:46.118Z,74.79
2019-05-11T01:31:17.106Z,76.38
2019-05-11T01:33:48.106Z,75.93
2019-05-11T01:36:19.255Z,75.98
2019-05-11T01:38:50.446Z,76.53
2019-05-11T01:41:21.434Z,75.85
2019-05-11T01:43:52.342Z,75.28
2019-05-11T01:46:23.380Z,74.85
2019-05-11T01:48:54.346Z,74.99
2019-05-11T01:51:25.370Z,74.88
2019-05-11T01:53:56.398Z,74.71
2019-05-11T01:56:27.393Z,75.04
2019-05-11T01:58:58.418Z,75.30
2019-05-11T02:01:29.885Z,74.63
2019-05-11T02:04:01.383Z,75.38
2019-05-11T02:06:32.858Z,75.22
2019-05-11T02:09:07.910Z,75.10
2019-05-11T02:11:38.893Z,75.10
2019-05-11T02:14:10.281Z,74.48
2019-05-11T02:16:41.213Z,75.66
2019-05-11T02:19:12.236Z,75.25
2019-05-11T02:21:43.191Z,75.31
2019-05-11T02:24:14.422Z,75.84
2019-05-11T02:26:45.460Z,75.12
2019-05-11T02:29:16.490Z,75.52
2019-05-11T02:31:47.512Z,75.73
2019-05-11T02:34:18.469Z,74.87
2019-05-11T02:36:49.488Z,76.30
2019-05-11T02:39:20.463Z,77.23
2019-05-11T02:41:51.619Z,76.93
2019-05-11T02:44:22.625Z,76.84
2019-05-11T02:46:53.704Z,76.83
2019-05-11T02:49:27.876Z,76.91
2019-05-11T02:51:57.423Z,76.33
2019-05-11T02:54:28.739Z,76.12
2019-05-11T02:56:59.812Z,75.61
2019-05-11T02:59:30.841Z,76.18
2019-05-11T03:02:04.405Z,75.63
2019-05-11T03:04:35.580Z,75.01
2019-05-11T03:07:06.514Z,75.26
2019-05-11T03:09:37.588Z,75.29
2019-05-11T03:12:08.713Z,75.27
2019-05-11T03:14:39.619Z,74.94
2019-05-11T03:17:23.687Z,75.89
2019-05-11T03:19:54.580Z,75.21
2019-05-11T03:22:25.518Z,76.85
2019-05-11T03:24:56.687Z,76.68
2019-05-11T03:27:28.291Z,76.18
2019-05-11T03:30:01.158Z,76.74
2019-05-11T03:32:32.057Z,76.53
2019-05-11T03:35:03.410Z,76.40
2019-05-11T03:37:34.699Z,75.86
2019-05-11T03:40:08.627Z,77.11
2019-05-11T03:42:39.712Z,76.56
2019-05-11T03:45:10.798Z,76.56
2019-05-11T03:47:41.891Z,76.35
2019-05-11T03:50:12.955Z,77.04
2019-05-11T03:52:43.938Z,76.73
2019-05-11T03:55:15.050Z,76.75
2019-05-11T03:57:46.031Z,76.74
2019-05-11T04:00:16.942Z,77.34
2019-05-11T04:02:47.839Z,77.65
2019-05-11T04:05:19.370Z,77.20
2019-05-11T04:07:50.429Z,77.31
2019-05-11T04:10:25.116Z,77.17
2019-05-11T04:12:54.443Z,77.04
2019-05-11T04:15:25.417Z,76.93
2019-05-11T04:17:56.449Z,76.80
2019-05-11T04:20:27.354Z,77.01
2019-05-11T04:22:58.304Z,76.63
2019-05-11T04:25:29.340Z,77.08
2019-05-11T04:28:00.379Z,76.54
2019-05-11T04:30:31.323Z,76.54
2019-05-11T04:33:02.259Z,76.20
2019-05-11T04:35:33.268Z,75.71
2019-05-11T04:38:04.126Z,75.71
2019-05-11T04:40:35.010Z,76.11
2019-05-11T04:43:09.034Z,75.75
2019-05-11T04:45:42.064Z,76.37
2019-05-11T04:48:13.132Z,75.94
2019-05-11T04:50:44.073Z,76.80
2019-05-11T04:53:15.033Z,76.20
2019-05-11T04:55:45.954Z,76.77
2019-05-11T04:58:17.029Z,76.61
2019-05-11T05:03:16.578Z,76.64
2019-05-11T05:05:47.626Z,76.42
2019-05-11T05:08:21.213Z,77.13
2019-05-11T05:13:31.548Z,77.00
2019-05-11T05:16:02.590Z,76.81
2019-05-11T05:21:02.638Z,78.22
2019-05-11T05:23:33.676Z,78.31
2019-05-11T05:26:04.620Z,78.06
2019-05-11T05:28:36.437Z,77.48
2019-05-11T05:31:10.839Z,78.07
2019-05-11T05:33:41.799Z,77.83
2019-05-11T05:36:12.853Z,78.47
2019-05-11T05:38:43.905Z,78.21
2019-05-11T05:41:14.896Z,78.21
2019-05-11T05:43:45.904Z,78.11
2019-05-11T05:46:16.953Z,78.58
2019-05-11T05:48:48.010Z,78.49
2019-05-11T05:51:19.102Z,79.04
2019-05-11T05:56:20.105Z,78.07
2019-05-11T05:59:11.057Z,79.04
2019-05-11T06:01:36.520Z,78.92
2019-05-11T06:04:07.637Z,79.30
2019-05-11T06:06:42.122Z,79.19
2019-05-11T06:09:14.841Z,79.36
2019-05-11T06:11:45.828Z,79.01
2019-05-11T06:15:06.071Z,78.54
2019-05-11T06:19:25.628Z,78.52
2019-05-11T06:21:49.520Z,79.73
2019-05-11T06:39:13.227Z,78.95
2019-05-11T06:45:43.817Z,78.10
2019-05-11T06:51:00.375Z,77.70
2019-05-11T07:17:13.336Z,78.33
2019-05-11T07:20:30.565Z,78.84
2019-05-11T07:34:51.344Z,78.39
2019-05-11T07:41:10.285Z,77.54
2019-05-11T07:44:38.574Z,76.99
2019-05-11T07:47:44.223Z,76.85
2019-05-11T07:56:44.966Z,76.73
2019-05-11T08:04:51.078Z,75.44
2019-05-11T08:08:04.712Z,75.53
2019-05-11T08:13:18.923Z,75.54
2019-05-11T08:18:22.932Z,76.06
2019-05-11T08:25:57.908Z,75.26
2019-05-11T08:31:23.264Z,74.51
2019-05-11T08:36:31.348Z,74.18
2019-05-11T08:39:25.794Z,73.87
2019-05-11T08:45:50.925Z,72.84
2019-05-11T08:48:03.715Z,73.59
2019-05-11T08:55:48.560Z,73.24
2019-05-11T09:01:19.432Z,72.57
2019-05-11T09:15:32.403Z,71.93
2019-05-11T09:25:18.182Z,71.42
2019-05-11T09:40:12.406Z,70.21
2019-05-11T09:44:02.500Z,70.83
2019-05-11T10:10:20.746Z,68.82
2019-05-11T10:15:33.969Z,67.57
2019-05-11T10:18:18.544Z,68.58
2019-05-11T10:24:30.006Z,67.59
2019-05-11T10:30:45.444Z,67.52
2019-05-11T10:51:58.782Z,65.96
2019-05-11T11:31:58.622Z,63.69
2019-05-11T11:37:05.385Z,63.92
2019-05-11T11:46:22.552Z,63.04
2019-05-11T12:18:23.202Z,62.49
2019-05-11T13:23:54.610Z,58.31
2019-05-11T13:30:03.760Z,58.73
2019-05-11T13:33:23.820Z,57.56
2019-05-11T13:35:54.548Z,57.03
2019-05-11T13:38:28.545Z,58.21
2019-05-11T13:41:01.933Z,57.74
2019-05-11T13:48:53.787Z,57.15
2019-05-11T13:51:28.544Z,55.89
2019-05-11T13:54:09.165Z,55.94
2019-05-11T13:57:00.157Z,56.50
2019-05-11T13:59:38.405Z,55.68
2019-05-11T14:05:08.730Z,55.53
2019-05-11T14:10:09.572Z,55.75
2019-05-11T14:20:38.575Z,55.31
2019-05-11T14:23:51.255Z,54.51
2019-05-11T14:26:44.832Z,52.77
2019-05-11T14:29:20.234Z,53.07
2019-05-11T14:36:49.544Z,52.64
2019-05-11T14:39:20.753Z,53.97
2019-05-11T14:44:22.840Z,54.55
2019-05-11T14:49:27.617Z,53.76
2019-05-11T14:54:29.091Z,53.28
2019-05-11T14:57:08.097Z,53.78
2019-05-11T14:59:39.854Z,53.83
2019-05-11T15:02:28.744Z,53.81
2019-05-11T15:08:03.614Z,52.14
2019-05-11T15:13:11.439Z,53.85
2019-05-11T15:18:34.961Z,53.75
2019-05-11T15:23:29.216Z,54.78
2019-05-11T15:36:19.562Z,52.90
2019-05-11T15:38:58.267Z,53.16
2019-05-11T15:44:12.237Z,52.29
2019-05-11T15:54:43.036Z,53.08
2019-05-11T15:57:30.682Z,51.84
2019-05-11T16:07:08.243Z,51.90
2019-05-11T16:20:41.738Z,52.30
2019-05-11T16:36:28.700Z,49.87
2019-05-11T16:39:18.923Z,49.17
2019-05-11T16:42:43.252Z,48.63
2019-05-11T16:45:51.041Z,47.47
2019-05-11T16:48:24.897Z,45.78
2019-05-11T16:50:59.668Z,45.55
2019-05-11T16:56:19.692Z,45.13
2019-05-11T16:59:04.516Z,46.48
2019-05-11T17:01:44.318Z,46.98
2019-05-11T17:04:20.392Z,46.37
2019-05-11T17:07:11.665Z,46.49
2019-05-11T17:12:04.515Z,46.80
2019-05-11T17:17:04.954Z,43.75
2019-05-11T17:22:09.517Z,43.97
2019-05-11T17:27:16.722Z,45.02
2019-05-11T17:32:17.776Z,45.62
2019-05-11T17:37:21.556Z,44.22
2019-05-11T17:42:25.915Z,44.11
2019-05-11T17:47:29.841Z,44.04
2019-05-11T17:50:20.030Z,44.92
2019-05-11T17:52:51.626Z,44.50
2019-05-11T18:00:21.271Z,45.71
2019-05-11T18:05:21.255Z,46.65
2019-05-11T18:07:53.184Z,46.68
2019-05-11T18:12:54.051Z,46.82
2019-05-11T18:20:24.812Z,47.87
2019-05-11T18:27:54.559Z,47.39
2019-05-11T18:30:25.540Z,47.26
2019-05-11T18:32:59.885Z,47.36
2019-05-11T18:35:31.603Z,47.22
2019-05-11T18:38:03.558Z,47.10
2019-05-11T18:40:34.559Z,47.74
2019-05-11T18:43:08.653Z,47.50
2019-05-11T18:45:39.473Z,47.39
2019-05-11T18:48:10.485Z,48.11
2019-05-11T18:50:44.203Z,48.08
2019-05-11T18:55:44.742Z,48.27
2019-05-11T18:58:18.457Z,48.40
2019-05-11T19:00:48.913Z,48.37
2019-05-11T19:05:48.534Z,48.38
2019-05-11T19:08:19.626Z,48.94
2019-05-11T19:18:24.550Z,49.99
2019-05-11T19:20:55.581Z,49.17
2019-05-11T19:23:28.655Z,49.73
2019-05-11T19:25:59.307Z,49.56
2019-05-11T19:28:30.243Z,49.79
2019-05-11T19:31:01.238Z,50.40
2019-05-11T19:33:33.216Z,49.81
2019-05-11T19:36:04.370Z,50.36
2019-05-11T19:41:09.808Z,50.64
2019-05-11T19:46:09.299Z,50.06
2019-05-11T19:49:47.843Z,51.01
2019-05-11T19:54:51.747Z,51.76
2019-05-11T20:02:21.191Z,51.13
2019-05-11T20:05:20.844Z,51.18
2019-05-11T20:08:00.985Z,51.74
2019-05-11T20:10:32.686Z,51.84
2019-05-11T20:13:03.757Z,52.22
2019-05-11T20:15:34.850Z,51.83
2019-05-11T20:20:44.179Z,51.99
2019-05-11T20:23:19.283Z,52.29
2019-05-11T20:25:53.730Z,52.54
2019-05-11T20:28:40.421Z,53.07
2019-05-11T20:31:18.388Z,52.70
2019-05-11T20:33:53.645Z,53.60
2019-05-11T20:39:04.289Z,54.30
2019-05-11T20:41:33.932Z,53.81
2019-05-11T20:49:22.556Z,53.85
2019-05-11T20:54:39.433Z,55.14
2019-05-11T20:59:45.428Z,55.34
2019-05-11T21:04:58.753Z,55.58
2019-05-11T21:07:41.254Z,55.32
2019-05-11T21:10:13.638Z,55.71
2019-05-11T21:13:08.573Z,55.56
2019-05-11T21:15:43.151Z,55.49
2019-05-11T21:18:20.147Z,55.59
2019-05-11T21:23:24.027Z,56.14
2019-05-11T21:25:58.210Z,56.41
2019-05-11T21:30:59.516Z,56.25
2019-05-11T21:33:30.550Z,56.45
2019-05-11T21:36:01.575Z,56.68
2019-05-11T21:38:38.631Z,56.89
2019-05-11T21:46:08.293Z,57.40
2019-05-11T21:48:42.353Z,56.89
2019-05-11T21:51:18.128Z,57.29
2019-05-11T21:53:52.394Z,57.41
2019-05-11T21:56:25.337Z,57.92
2019-05-11T21:58:56.564Z,57.78
2019-05-11T22:01:28.280Z,58.53
2019-05-11T22:03:59.671Z,58.42
2019-05-11T22:06:30.833Z,58.67
2019-05-11T22:11:49.182Z,58.97
2019-05-11T22:14:22.374Z,58.95
2019-05-11T22:19:25.865Z,58.82
2019-05-11T22:21:58.255Z,58.50
2019-05-11T22:24:29.615Z,58.44
2019-05-11T22:27:03.052Z,59.37
2019-05-11T22:29:34.540Z,58.95
2019-05-11T22:32:09.440Z,59.02
2019-05-11T22:37:09.559Z,59.13
2019-05-11T22:39:40.649Z,59.43
2019-05-11T22:42:11.658Z,59.63
2019-05-11T22:44:42.822Z,59.35
2019-05-11T22:47:13.377Z,59.85
2019-05-11T22:49:44.558Z,60.27
2019-05-11T22:52:17.853Z,60.20
2019-05-11T22:54:48.534Z,60.51
2019-05-11T22:57:20.254Z,60.91
2019-05-11T22:59:51.185Z,60.57
2019-05-11T23:02:25.330Z,60.96
2019-05-11T23:04:57.913Z,60.57
2019-05-11T23:07:33.813Z,60.96
2019-05-11T23:12:32.113Z,60.95
2019-05-11T23:15:13.714Z,60.75
2019-05-11T23:17:44.699Z,60.79
2019-05-11T23:22:57.453Z,61.75
2019-05-11T23:25:24.179Z,61.71
2019-05-11T23:27:55.744Z,62.05
2019-05-11T23:30:28.083Z,62.03
2019-05-11T23:35:28.584Z,61.96
2019-05-11T23:37:59.778Z,61.89
2019-05-11T23:40:30.714Z,61.93
2019-05-11T23:43:01.862Z,62.62
2019-05-11T23:45:33.002Z,62.82
2019-05-11T23:48:04.323Z,62.37
2019-05-11T23:50:35.351Z,62.68
2019-05-11T23:53:09.686Z,62.17
2019-05-11T23:55:38.892Z,62.09
2019-05-11T23:58:09.991Z,61.85
